createdAt,value
2022-11-16T00:00:43.499Z,28.52
2022-11-16T00:03:14.744Z,28.56
2022-11-16T00:05:45.382Z,28.75
2022-11-16T00:08:15.682Z,28.78
2022-11-16T00:10:46.530Z,28.75
2022-11-16T00:13:17.225Z,28.79
2022-11-16T00:15:57.581Z,28.85
2022-11-16T00:18:28.426Z,29.02
2022-11-16T00:20:59.412Z,29.12
2022-11-16T00:23:31.675Z,29.30
2022-11-16T00:26:08.612Z,29.49
2022-11-16T00:28:40.195Z,29.59
2022-11-16T00:31:11.931Z,29.71
2022-11-16T00:33:43.071Z,29.79
2022-11-16T00:36:15.506Z,29.86
2022-11-16T00:38:47.073Z,29.95
2022-11-16T00:41:20.669Z,29.99
2022-11-16T00:43:52.580Z,30.01
2022-11-16T00:46:24.065Z,30.04
2022-11-16T00:48:55.562Z,30.13
2022-11-16T00:51:26.511Z,30.15
2022-11-16T00:53:57.620Z,30.20
2022-11-16T00:56:29.642Z,30.24
2022-11-16T00:59:01.156Z,30.28
2022-11-16T01:01:35.024Z,30.30
2022-11-16T01:04:09.718Z,30.33
2022-11-16T01:06:41.151Z,30.38
2022-11-16T01:09:12.262Z,30.42
2022-11-16T01:12:01.292Z,30.49
2022-11-16T01:14:33.381Z,30.52
2022-11-16T01:17:05.888Z,30.59
2022-11-16T01:19:38.005Z,30.64
2022-11-16T01:22:12.038Z,30.65
2022-11-16T01:24:42.781Z,30.73
2022-11-16T01:27:15.012Z,30.76
2022-11-16T01:29:48.684Z,30.76
2022-11-16T01:32:21.455Z,30.75
2022-11-16T01:34:53.030Z,30.68
2022-11-16T01:37:31.655Z,30.73
2022-11-16T01:40:02.513Z,30.79
2022-11-16T01:42:34.764Z,30.78
2022-11-16T01:45:25.910Z,30.90
2022-11-16T01:48:00.307Z,30.92
2022-11-16T01:50:35.204Z,30.96
2022-11-16T01:53:07.651Z,30.99
2022-11-16T01:55:51.721Z,31.07
2022-11-16T01:58:31.634Z,31.18
2022-11-16T02:01:12.610Z,31.16
2022-11-16T02:03:50.012Z,31.25
2022-11-16T02:06:29.460Z,31.27
2022-11-16T02:09:59.105Z,31.43
2022-11-16T02:13:00.006Z,31.40
2022-11-16T02:15:46.668Z,31.35
2022-11-16T02:18:37.081Z,31.28
2022-11-16T02:21:14.288Z,31.35
2022-11-16T02:24:03.812Z,31.42
2022-11-16T02:26:52.635Z,31.41
2022-11-16T02:29:41.535Z,31.43
2022-11-16T02:32:15.235Z,31.36
2022-11-16T02:35:24.807Z,31.33
2022-11-16T02:38:09.849Z,31.33
2022-11-16T02:40:42.539Z,31.34
2022-11-16T02:43:18.753Z,31.38
2022-11-16T02:45:52.560Z,31.49
2022-11-16T02:48:26.997Z,31.59
2022-11-16T02:51:00.744Z,31.54
2022-11-16T02:53:35.824Z,31.55
2022-11-16T02:56:07.786Z,31.53
2022-11-16T02:58:38.463Z,31.55
2022-11-16T03:01:20.045Z,31.54
2022-11-16T03:03:52.360Z,31.51
2022-11-16T03:06:30.505Z,31.42
2022-11-16T03:09:25.012Z,31.60
2022-11-16T03:12:02.134Z,31.65
2022-11-16T03:14:54.061Z,31.78
2022-11-16T03:17:46.678Z,31.80
2022-11-16T03:20:23.805Z,31.75
2022-11-16T03:23:00.517Z,31.80
2022-11-16T03:25:56.386Z,31.79
2022-11-16T03:29:00.630Z,31.92
2022-11-16T03:31:45.424Z,31.92
2022-11-16T03:34:21.314Z,32.01
2022-11-16T03:36:53.122Z,32.07
2022-11-16T03:39:32.473Z,32.11
2022-11-16T03:42:08.072Z,32.04
2022-11-16T03:44:40.089Z,32.09
2022-11-16T03:47:14.191Z,32.13
2022-11-16T03:49:48.685Z,32.09
2022-11-16T03:52:21.656Z,32.10
2022-11-16T03:54:54.029Z,32.09
2022-11-16T03:57:25.528Z,32.13
2022-11-16T03:59:59.905Z,32.24
2022-11-16T04:02:33.816Z,32.28
2022-11-16T04:05:23.063Z,32.27
2022-11-16T04:08:17.462Z,32.30
2022-11-16T04:11:07.034Z,32.32
2022-11-16T04:13:55.898Z,32.43
2022-11-16T04:16:44.763Z,32.50
2022-11-16T04:19:33.620Z,32.48
2022-11-16T04:22:44.596Z,32.61
2022-11-16T04:25:23.331Z,32.75
2022-11-16T04:28:13.600Z,32.86
2022-11-16T04:31:12.537Z,32.98
2022-11-16T04:34:05.235Z,33.08
2022-11-16T04:36:54.026Z,33.15
2022-11-16T04:39:24.836Z,33.22
2022-11-16T04:42:14.411Z,33.35
2022-11-16T04:45:25.658Z,33.23
2022-11-16T04:47:57.113Z,33.17
2022-11-16T04:50:32.985Z,33.15
2022-11-16T04:53:04.869Z,33.10
2022-11-16T04:55:41.013Z,33.06
2022-11-16T04:58:11.581Z,32.92
2022-11-16T05:00:43.290Z,32.87
2022-11-16T05:03:14.715Z,32.92
2022-11-16T05:05:47.413Z,33.00
2022-11-16T05:08:19.694Z,33.13
2022-11-16T05:10:53.501Z,33.27
2022-11-16T05:13:25.056Z,33.35
2022-11-16T05:15:56.926Z,33.27
2022-11-16T05:18:32.181Z,33.24
2022-11-16T05:21:05.551Z,33.26
2022-11-16T05:23:58.994Z,33.23
2022-11-16T05:26:33.189Z,33.29
2022-11-16T05:29:05.372Z,33.49
2022-11-16T05:31:40.278Z,33.69
2022-11-16T05:34:12.175Z,33.68
2022-11-16T05:36:42.994Z,33.78
2022-11-16T05:39:14.688Z,33.80
2022-11-16T05:41:46.495Z,33.84
2022-11-16T05:44:18.181Z,33.90
2022-11-16T05:46:49.531Z,33.77
2022-11-16T05:49:22.595Z,33.73
2022-11-16T05:51:53.324Z,33.68
2022-11-16T05:54:27.234Z,33.60
2022-11-16T05:56:58.725Z,33.75
2022-11-16T05:59:30.964Z,33.64
2022-11-16T06:02:05.741Z,33.83
2022-11-16T06:04:37.915Z,33.99
2022-11-16T06:07:08.212Z,34.07
2022-11-16T06:09:39.708Z,34.25
2022-11-16T06:12:18.708Z,34.39
2022-11-16T06:14:49.854Z,34.44
2022-11-16T06:17:20.552Z,34.64
2022-11-16T06:19:51.357Z,34.73
2022-11-16T06:22:22.322Z,34.81
2022-11-16T06:24:53.589Z,34.96
2022-11-16T06:27:27.506Z,34.87
2022-11-16T06:29:58.550Z,34.82
2022-11-16T06:32:32.935Z,34.69
2022-11-16T06:35:03.822Z,34.50
2022-11-16T06:37:34.977Z,34.38
2022-11-16T06:40:07.455Z,34.23
2022-11-16T06:42:43.069Z,34.22
2022-11-16T06:45:17.163Z,34.13
2022-11-16T06:47:55.148Z,34.06
2022-11-16T06:50:27.288Z,33.97
2022-11-16T06:53:01.794Z,33.94
2022-11-16T06:55:34.276Z,33.88
2022-11-16T06:58:07.360Z,33.86
2022-11-16T07:00:39.640Z,33.83
2022-11-16T07:03:12.469Z,33.73
2022-11-16T07:05:43.881Z,33.71
2022-11-16T07:08:19.213Z,33.66
2022-11-16T07:10:51.460Z,33.64
2022-11-16T07:13:22.648Z,33.64
2022-11-16T07:15:54.714Z,33.57
2022-11-16T07:18:26.069Z,33.51
2022-11-16T07:20:57.876Z,33.45
2022-11-16T07:23:29.828Z,33.37
2022-11-16T07:26:06.649Z,33.32
2022-11-16T07:28:49.252Z,33.31
2022-11-16T07:31:24.612Z,33.28
2022-11-16T07:34:15.175Z,33.25
2022-11-16T07:37:08.153Z,33.30
2022-11-16T07:39:38.993Z,33.22
2022-11-16T07:42:13.197Z,33.26
2022-11-16T07:45:01.636Z,33.25
2022-11-16T07:47:39.101Z,33.23
2022-11-16T07:50:13.456Z,33.23
2022-11-16T07:52:47.551Z,33.21
2022-11-16T07:55:27.401Z,33.11
2022-11-16T07:57:59.633Z,33.11
2022-11-16T08:00:30.303Z,33.14
2022-11-16T08:03:10.263Z,33.16
2022-11-16T08:05:41.940Z,33.11
2022-11-16T08:08:13.832Z,33.14
2022-11-16T08:10:46.899Z,33.11
2022-11-16T08:13:18.187Z,33.07
2022-11-16T08:15:48.919Z,33.03
2022-11-16T08:18:23.112Z,33.00
2022-11-16T08:20:53.544Z,32.99
2022-11-16T08:23:25.519Z,32.97
2022-11-16T08:26:04.479Z,32.94
2022-11-16T08:28:35.877Z,32.92
2022-11-16T08:31:14.948Z,32.89
2022-11-16T08:33:50.016Z,32.86
2022-11-16T08:36:21.458Z,32.83
2022-11-16T08:38:53.527Z,32.81
2022-11-16T08:41:26.400Z,32.79
2022-11-16T08:43:58.011Z,32.74
2022-11-16T08:46:29.562Z,32.73
2022-11-16T08:49:10.199Z,32.69
2022-11-16T08:51:41.819Z,32.65
2022-11-16T08:54:12.653Z,32.62
2022-11-16T08:56:45.172Z,32.62
2022-11-16T08:59:16.658Z,32.57
2022-11-16T09:01:51.660Z,32.54
2022-11-16T09:04:22.662Z,32.55
2022-11-16T09:06:54.098Z,32.57
2022-11-16T09:09:24.787Z,32.51
2022-11-16T09:11:58.743Z,32.42
2022-11-16T09:14:31.592Z,32.42
2022-11-16T09:17:02.131Z,32.37
2022-11-16T09:19:32.414Z,32.38
2022-11-16T09:22:03.363Z,32.39
2022-11-16T09:24:34.062Z,32.34
2022-11-16T09:27:04.848Z,32.31
2022-11-16T09:29:35.750Z,32.29
2022-11-16T09:32:07.367Z,32.29
2022-11-16T09:34:38.219Z,32.28
2022-11-16T09:37:09.164Z,32.24
2022-11-16T09:39:39.695Z,32.21
2022-11-16T09:42:43.601Z,32.18
2022-11-16T09:45:19.101Z,32.11
2022-11-16T09:47:58.434Z,32.11
2022-11-16T09:50:37.922Z,32.06
2022-11-16T09:53:32.429Z,32.05
2022-11-16T09:56:26.412Z,32.05
2022-11-16T09:59:06.165Z,31.99
2022-11-16T10:02:03.023Z,32.00
2022-11-16T10:04:44.969Z,31.95
2022-11-16T10:07:27.799Z,31.96
2022-11-16T10:09:58.893Z,31.90
2022-11-16T10:12:37.017Z,31.89
2022-11-16T10:15:10.709Z,31.88
2022-11-16T10:17:47.091Z,31.88
2022-11-16T10:20:50.751Z,31.84
2022-11-16T10:23:37.887Z,31.77
2022-11-16T10:26:20.467Z,31.75
2022-11-16T10:29:02.817Z,31.77
2022-11-16T10:31:39.419Z,31.81
2022-11-16T10:34:10.966Z,31.73
2022-11-16T10:36:41.287Z,31.66
2022-11-16T10:39:17.950Z,31.66
2022-11-16T10:41:54.142Z,31.67
2022-11-16T10:44:42.956Z,31.64
2022-11-16T10:47:27.115Z,31.63
2022-11-16T10:50:08.192Z,31.59
2022-11-16T10:52:38.749Z,31.58
2022-11-16T10:55:09.883Z,31.57
2022-11-16T10:58:16.055Z,31.60
2022-11-16T11:00:52.570Z,31.52
2022-11-16T11:03:33.729Z,31.53
2022-11-16T11:06:04.307Z,31.49
2022-11-16T11:08:35.050Z,31.51
2022-11-16T11:11:25.505Z,31.55
2022-11-16T11:14:11.614Z,31.62
2022-11-16T11:16:42.740Z,31.59
2022-11-16T11:19:39.277Z,31.61
2022-11-16T11:22:15.724Z,31.58
2022-11-16T11:24:50.303Z,31.56
2022-11-16T11:27:26.354Z,31.53
2022-11-16T11:29:59.651Z,31.52
2022-11-16T11:32:36.735Z,31.53
2022-11-16T11:35:08.116Z,31.50
2022-11-16T11:37:40.705Z,31.49
2022-11-16T11:40:11.469Z,31.48
2022-11-16T11:42:43.950Z,31.42
2022-11-16T11:45:14.846Z,31.41
2022-11-16T11:47:58.434Z,31.36
2022-11-16T11:50:41.099Z,31.37
2022-11-16T11:53:44.746Z,31.41
2022-11-16T11:56:15.872Z,31.34
2022-11-16T11:58:47.732Z,31.36
2022-11-16T12:01:42.691Z,31.33
2022-11-16T12:04:31.759Z,31.46
2022-11-16T12:07:10.996Z,31.50
2022-11-16T12:09:51.089Z,31.48
2022-11-16T12:12:47.751Z,31.51
2022-11-16T12:15:43.150Z,31.53
2022-11-16T12:18:32.010Z,31.51
2022-11-16T12:21:31.539Z,31.61
2022-11-16T12:24:40.087Z,31.59
2022-11-16T12:27:37.120Z,31.56
2022-11-16T12:30:20.927Z,31.59
2022-11-16T12:33:33.246Z,31.55
2022-11-16T12:36:16.094Z,31.48
2022-11-16T12:39:04.489Z,31.55
2022-11-16T12:41:52.096Z,31.45
2022-11-16T12:44:47.055Z,31.53
2022-11-16T12:47:35.539Z,31.50
2022-11-16T12:50:42.258Z,31.52
2022-11-16T12:53:24.744Z,31.43
2022-11-16T12:56:25.545Z,31.46
2022-11-16T12:59:18.764Z,31.52
2022-11-16T13:01:48.944Z,31.52
2022-11-16T13:04:23.396Z,31.51
2022-11-16T13:06:58.902Z,31.52
2022-11-16T13:09:33.697Z,31.46
2022-11-16T13:12:07.775Z,31.48
2022-11-16T13:14:49.866Z,31.46
2022-11-16T13:17:35.784Z,31.47
2022-11-16T13:20:34.786Z,31.50
2022-11-16T13:23:48.109Z,31.52
2022-11-16T13:26:26.219Z,31.52
2022-11-16T13:29:16.095Z,31.51
2022-11-16T13:31:58.923Z,31.43
2022-11-16T13:34:34.092Z,31.43
2022-11-16T13:37:40.661Z,31.49
2022-11-16T13:40:25.249Z,31.43
2022-11-16T13:43:14.367Z,31.46
2022-11-16T13:45:51.286Z,31.46
2022-11-16T13:48:22.882Z,31.38
2022-11-16T13:50:58.563Z,31.40
2022-11-16T13:54:38.046Z,31.34
2022-11-16T13:56:29.011Z,31.41
2022-11-16T13:59:00.096Z,31.38
2022-11-16T14:02:22.716Z,31.36
2022-11-16T14:05:20.741Z,31.34
2022-11-16T14:07:56.059Z,31.31
2022-11-16T14:10:52.459Z,31.33
2022-11-16T14:13:48.240Z,31.33
2022-11-16T14:16:22.424Z,31.31
2022-11-16T14:18:58.084Z,31.29
2022-11-16T14:21:50.370Z,31.32
2022-11-16T14:24:35.094Z,31.26
2022-11-16T14:27:17.038Z,31.25
2022-11-16T14:29:57.258Z,31.21
2022-11-16T14:32:42.453Z,31.20
2022-11-16T14:35:40.528Z,31.22
2022-11-16T14:38:31.546Z,31.24
2022-11-16T14:41:04.981Z,31.15
2022-11-16T14:43:48.964Z,31.18
2022-11-16T14:46:24.940Z,31.16
2022-11-16T14:49:00.889Z,31.11
2022-11-16T14:51:34.500Z,31.11
2022-11-16T14:54:12.831Z,31.06
2022-11-16T14:57:04.021Z,31.11
2022-11-16T14:59:34.890Z,31.05
2022-11-16T15:02:28.649Z,31.08
2022-11-16T15:04:59.239Z,31.04
2022-11-16T15:07:31.048Z,31.02
2022-11-16T15:10:02.410Z,31.01
2022-11-16T15:12:44.090Z,31.03
2022-11-16T15:15:17.931Z,31.04
2022-11-16T15:18:08.461Z,31.01
2022-11-16T15:20:45.640Z,31.02
2022-11-16T15:23:17.258Z,30.96
2022-11-16T15:25:56.965Z,30.96
2022-11-16T15:28:30.251Z,30.86
2022-11-16T15:31:02.901Z,30.82
2022-11-16T15:33:43.279Z,30.77
2022-11-16T15:36:50.072Z,30.73
2022-11-16T15:39:26.413Z,30.75
2022-11-16T15:42:03.273Z,30.75
2022-11-16T15:44:34.813Z,30.70
2022-11-16T15:47:06.021Z,30.70
2022-11-16T15:49:40.367Z,30.64
2022-11-16T15:52:12.143Z,30.62
2022-11-16T15:55:01.632Z,30.62
2022-11-16T15:57:32.790Z,30.61
2022-11-16T16:00:04.408Z,30.56
2022-11-16T16:02:35.183Z,30.51
2022-11-16T16:05:07.048Z,30.52
2022-11-16T16:07:40.635Z,30.49
2022-11-16T16:10:20.536Z,30.48
2022-11-16T16:13:03.676Z,30.48
2022-11-16T16:15:37.494Z,30.42
2022-11-16T16:18:37.145Z,30.39
2022-11-16T16:21:07.850Z,30.37
2022-11-16T16:23:54.670Z,30.35
2022-11-16T16:26:25.560Z,30.35
2022-11-16T16:28:56.918Z,30.28
2022-11-16T16:31:30.776Z,30.25
2022-11-16T16:34:12.481Z,30.24
2022-11-16T16:36:44.661Z,30.22
2022-11-16T16:39:15.491Z,30.22
2022-11-16T16:41:45.977Z,30.25
2022-11-16T16:44:17.373Z,30.23
2022-11-16T16:46:48.063Z,30.19
2022-11-16T16:49:18.672Z,30.19
2022-11-16T16:51:48.897Z,30.17
2022-11-16T16:54:19.292Z,30.15
2022-11-16T16:56:49.693Z,30.17
2022-11-16T16:59:20.805Z,30.16
2022-11-16T17:01:52.682Z,30.18
2022-11-16T17:04:22.937Z,30.14
2022-11-16T17:06:54.573Z,30.11
2022-11-16T17:09:26.281Z,30.13
2022-11-16T17:11:56.955Z,30.11
2022-11-16T17:14:27.541Z,30.07
2022-11-16T17:16:59.650Z,30.06
2022-11-16T17:19:30.891Z,30.01
2022-11-16T17:22:01.955Z,30.06
2022-11-16T17:24:32.430Z,30.07
2022-11-16T17:27:03.079Z,30.04
2022-11-16T17:29:34.817Z,30.04
2022-11-16T17:32:09.607Z,30.04
2022-11-16T17:34:48.805Z,29.98
2022-11-16T17:37:28.591Z,29.99
2022-11-16T17:40:00.815Z,29.91
2022-11-16T17:42:39.175Z,29.89
2022-11-16T17:45:39.956Z,29.94
2022-11-16T17:48:38.201Z,29.95
2022-11-16T17:51:14.958Z,29.87
2022-11-16T17:54:01.493Z,29.83
2022-11-16T17:56:47.706Z,29.87
2022-11-16T17:59:31.451Z,29.85
2022-11-16T18:02:04.153Z,29.79
2022-11-16T18:04:48.233Z,29.78
2022-11-16T18:07:29.354Z,29.83
2022-11-16T18:10:15.003Z,29.73
2022-11-16T18:13:10.422Z,29.71
2022-11-16T18:15:48.578Z,29.71
2022-11-16T18:18:25.390Z,29.67
2022-11-16T18:20:56.942Z,29.66
2022-11-16T18:23:28.940Z,29.65
2022-11-16T18:26:05.861Z,29.64
2022-11-16T18:28:37.150Z,29.61
2022-11-16T18:31:09.821Z,29.60
2022-11-16T18:33:40.142Z,29.60
2022-11-16T18:36:11.488Z,29.53
2022-11-16T18:38:41.893Z,29.54
2022-11-16T18:41:15.260Z,29.51
2022-11-16T18:44:03.006Z,29.52
2022-11-16T18:46:34.815Z,29.48
2022-11-16T18:49:05.633Z,29.46
2022-11-16T18:51:36.515Z,29.45
2022-11-16T18:54:06.868Z,29.42
2022-11-16T18:56:37.296Z,29.42
2022-11-16T18:59:07.710Z,29.40
2022-11-16T19:01:38.205Z,29.36
2022-11-16T19:04:09.801Z,29.35
2022-11-16T19:06:41.145Z,29.37
2022-11-16T19:09:12.295Z,29.31
2022-11-16T19:11:42.917Z,29.29
2022-11-16T19:14:15.619Z,29.29
2022-11-16T19:16:54.169Z,29.29
2022-11-16T19:19:28.669Z,29.27
2022-11-16T19:21:59.297Z,29.25
2022-11-16T19:24:30.052Z,29.24
2022-11-16T19:27:00.591Z,29.21
2022-11-16T19:29:31.372Z,29.22
2022-11-16T19:32:02.144Z,29.21
2022-11-16T19:34:34.254Z,29.16
2022-11-16T19:37:07.515Z,29.17
2022-11-16T19:39:38.085Z,29.15
2022-11-16T19:42:08.635Z,29.17
2022-11-16T19:44:39.382Z,29.13
2022-11-16T19:47:09.609Z,29.14
2022-11-16T19:49:40.127Z,29.12
2022-11-16T19:52:11.351Z,29.11
2022-11-16T19:54:42.195Z,29.12
2022-11-16T19:57:13.829Z,29.11
2022-11-16T19:59:44.701Z,29.11
2022-11-16T20:02:15.472Z,29.11
2022-11-16T20:04:46.235Z,29.11
2022-11-16T20:07:19.047Z,29.09
2022-11-16T20:09:53.838Z,29.06
2022-11-16T20:12:24.433Z,29.06
2022-11-16T20:14:57.288Z,29.06
2022-11-16T20:17:27.495Z,29.06
2022-11-16T20:20:01.649Z,29.06
2022-11-16T20:22:32.940Z,29.03
2022-11-16T20:25:03.426Z,29.03
2022-11-16T20:27:34.393Z,29.03
2022-11-16T20:30:09.917Z,28.99
2022-11-16T20:32:40.714Z,29.03
2022-11-16T20:35:13.690Z,29.00
2022-11-16T20:37:47.114Z,28.97
2022-11-16T20:40:20.765Z,28.97
2022-11-16T20:42:51.882Z,28.96
2022-11-16T20:45:23.353Z,28.94
2022-11-16T20:47:53.827Z,28.95
2022-11-16T20:50:24.515Z,28.94
2022-11-16T20:52:58.756Z,28.93
2022-11-16T20:55:29.224Z,28.92
2022-11-16T20:57:59.769Z,28.92
2022-11-16T21:00:30.480Z,28.91
2022-11-16T21:03:01.532Z,28.91
2022-11-16T21:05:32.427Z,28.93
2022-11-16T21:08:03.006Z,28.95
2022-11-16T21:10:37.232Z,28.91
2022-11-16T21:13:26.693Z,28.91
2022-11-16T21:16:01.678Z,28.88
2022-11-16T21:18:32.545Z,28.89
2022-11-16T21:21:08.503Z,28.86
2022-11-16T21:23:42.984Z,28.85
2022-11-16T21:26:15.650Z,28.85
2022-11-16T21:28:46.446Z,28.84
2022-11-16T21:31:22.579Z,28.85
2022-11-16T21:33:53.432Z,28.85
2022-11-16T21:36:30.961Z,28.79
2022-11-16T21:39:01.617Z,28.80
2022-11-16T21:41:32.708Z,28.84
2022-11-16T21:44:03.833Z,28.86
2022-11-16T21:46:34.345Z,28.82
2022-11-16T21:49:05.526Z,28.82
2022-11-16T21:51:35.979Z,28.82
2022-11-16T21:54:06.390Z,28.81
2022-11-16T21:56:37.175Z,28.80
2022-11-16T21:59:08.243Z,28.80
2022-11-16T22:01:59.063Z,28.80
2022-11-16T22:04:48.146Z,28.79
2022-11-16T22:07:34.654Z,28.79
2022-11-16T22:10:12.872Z,28.78
2022-11-16T22:12:43.866Z,28.75
2022-11-16T22:15:14.619Z,28.76
2022-11-16T22:17:45.855Z,28.74
2022-11-16T22:20:17.123Z,28.74
2022-11-16T22:22:48.510Z,28.72
2022-11-16T22:25:19.529Z,28.81
2022-11-16T22:28:19.132Z,28.83
2022-11-16T22:30:40.776Z,28.83
2022-11-16T22:33:11.242Z,28.86
2022-11-16T22:35:42.922Z,28.84
2022-11-16T22:38:14.601Z,28.83
2022-11-16T22:40:53.751Z,28.85
2022-11-16T22:43:29.595Z,28.84
2022-11-16T22:46:01.636Z,28.81
2022-11-16T22:48:38.180Z,28.83
2022-11-16T22:51:26.782Z,28.88
2022-11-16T22:54:08.123Z,28.85
2022-11-16T22:56:39.176Z,28.82
2022-11-16T22:59:10.771Z,28.83
2022-11-16T23:01:41.477Z,28.82
2022-11-16T23:04:11.959Z,28.84
2022-11-16T23:06:42.939Z,28.84
2022-11-16T23:09:14.015Z,28.84
2022-11-16T23:12:03.469Z,28.88
2022-11-16T23:14:52.596Z,28.84
2022-11-16T23:17:23.593Z,28.86
2022-11-16T23:20:17.294Z,28.86
2022-11-16T23:23:07.826Z,28.89
2022-11-16T23:25:57.069Z,28.92
2022-11-16T23:28:27.622Z,28.92
2022-11-16T23:30:57.990Z,28.91
2022-11-16T23:33:46.605Z,28.97
2022-11-16T23:36:17.331Z,28.98
2022-11-16T23:38:47.878Z,28.98
2022-11-16T23:41:36.961Z,28.98
2022-11-16T23:44:07.766Z,29.01
2022-11-16T23:46:38.671Z,28.98
2022-11-16T23:49:09.856Z,29.00
2022-11-16T23:51:40.937Z,29.05
2022-11-16T23:54:11.662Z,29.02
2022-11-16T23:56:42.216Z,29.06
2022-11-16T23:59:21.964Z,29.11
